Time;durP1;ratioP1;P1;durP2;ratioP2;P2;SDS_P1;SDS_P2;PMS_P1;PMS_P2;Temp;Humidity;BMP_temperature;BMP_pressure;BME280_temperature;BME280_humidity;BME280_pressure;Samples;Min_cycle;Max_cycle;Signal;HPM_P1;HPM_P2
2023/02/08 00:09:08;;;;;;;14.60;10.50;;;;;;;-2.44;82.07;102089.56;451013;1249;143059;-67
2023/02/08 00:19:14;;;;;;;21.50;13.20;;;;;;;-2.51;82.04;102091.09;450421;1249;143105;-67
2023/02/08 00:29:19;;;;;;;27.20;17.40;;;;;;;-2.55;82.35;102094.41;450929;1249;142485;-66
2023/02/08 00:39:26;;;;;;;36.20;22.60;;;;;;;-2.60;82.63;102102.83;449004;1249;142956;-67
2023/02/08 00:49:32;;;;;;;29.00;18.80;;;;;;;-2.68;82.84;102097.27;450580;1249;213962;-66
2023/02/08 00:59:38;;;;;;;32.30;18.60;;;;;;;-2.72;83.04;102104.36;451065;1249;144220;-66
2023/02/08 01:09:44;;;;;;;30.60;18.80;;;;;;;-2.77;83.06;102100.25;449632;1249;143877;-65
2023/02/08 01:19:49;;;;;;;27.60;17.10;;;;;;;-2.83;83.23;102096.96;436207;1249;143282;-66
2023/02/08 01:29:55;;;;;;;23.00;16.00;;;;;;;-2.92;83.34;102091.03;439084;1249;143273;-66
2023/02/08 01:40:00;;;;;;;;;;;;;;;-2.98;83.37;102095.30;433382;1251;143368;-66
2023/02/08 01:50:07;;;;;;;23.20;13.10;;;;;;;-3.03;83.39;102093.60;436000;1253;128690;-66
2023/02/08 02:00:17;;;;;;;20.50;11.90;;;;;;;-3.08;83.11;102086.91;440095;1250;141604;-66
2023/02/08 02:10:26;;;;;;;19.40;11.60;;;;;;;-3.12;83.13;102091.58;444293;1249;143937;-66
2023/02/08 02:20:42;;;;;;;19.20;12.70;;;;;;;-3.14;83.37;102084.67;438361;1250;153846;-65
2023/02/08 02:31:26;;;;;;;16.80;10.70;;;;;;;-3.17;83.36;102092.30;439672;1250;142611;-66
2023/02/08 02:52:16;;;;;;;19.90;11.20;;;;;;;-3.28;83.38;102105.80;436866;1253;145423;-64
2023/02/08 03:02:27;;;;;;;14.30;10.10;;;;;;;-3.34;83.34;102110.90;434711;1251;142973;-65
2023/02/08 03:12:44;;;;;;;20.90;10.20;;;;;;;-3.40;83.27;102119.98;436036;1250;143604;-67
2023/02/08 03:23:02;;;;;;;15.20;9.90;;;;;;;-3.39;83.18;102131.15;445028;1250;142717;-68
2023/02/08 03:33:17;;;;;;;15.20;10.60;;;;;;;-3.37;83.26;102126.23;437190;1249;142336;-66
2023/02/08 03:43:27;;;;;;;12.20;8.40;;;;;;;-3.34;83.24;102131.28;445203;1250;142788;-66
2023/02/08 03:53:37;;;;;;;20.70;13.20;;;;;;;-3.34;83.16;102134.38;436888;1250;142342;-66
2023/02/08 04:03:44;;;;;;;18.40;12.70;;;;;;;-3.37;83.39;102133.08;433317;1253;142331;-66
2023/02/08 04:13:51;;;;;;;20.90;13.10;;;;;;;-3.40;83.56;102132.82;434495;1250;142223;-65
2023/02/08 04:23:56;;;;;;;;;;;;;;;-3.42;83.48;102140.77;437339;1253;141963;-65
2023/02/08 04:34:02;;;;;;;17.70;12.50;;;;;;;-3.45;83.70;102152.85;440252;1249;129533;-67
2023/02/08 04:44:08;;;;;;;17.30;12.60;;;;;;;-3.51;83.60;102152.64;436781;1251;143066;-65
2023/02/08 04:54:13;;;;;;;25.40;12.60;;;;;;;-3.53;83.84;102145.19;435908;1250;142775;-66
2023/02/08 05:04:18;;;;;;;;;;;;;;;-3.52;84.02;102146.30;450028;1250;142499;-66
2023/02/08 05:14:24;;;;;;;26.40;15.60;;;;;;;-3.48;83.86;102151.89;443874;1250;128268;-65
2023/02/08 05:24:28;;;;;;;;;;;;;;;-3.43;84.04;102172.44;450678;1250;142707;-66
2023/02/08 05:34:34;;;;;;;19.30;13.60;;;;;;;-3.40;84.01;102184.53;451406;1250;129482;-65
2023/02/08 05:44:41;;;;;;;21.20;13.20;;;;;;;-3.39;83.82;102189.36;451210;1250;142780;-66
2023/02/08 05:54:47;;;;;;;22.60;13.40;;;;;;;-3.40;83.93;102199.08;449685;1250;143584;-66
2023/02/08 06:04:53;;;;;;;14.30;10.80;;;;;;;-3.38;83.75;102214.59;449169;1250;142536;-67
2023/02/08 06:14:57;;;;;;;;;;;;;;;-3.40;83.51;102226.02;451149;1250;143727;-66
2023/02/08 06:25:03;;;;;;;15.80;11.70;;;;;;;-3.38;83.57;102224.52;449776;1250;128776;-66
2023/02/08 06:35:10;;;;;;;19.00;11.10;;;;;;;-3.34;83.41;102229.27;448818;1251;142855;-66
2023/02/08 06:45:16;;;;;;;16.00;11.70;;;;;;;-3.28;83.21;102242.20;435797;1249;141815;-66
2023/02/08 06:55:22;;;;;;;15.40;11.20;;;;;;;-3.25;83.29;102244.68;450114;1250;146364;-66
2023/02/08 07:05:27;;;;;;;;;;;;;;;-3.15;83.25;102250.51;450875;1249;144485;-66
2023/02/08 07:15:34;;;;;;;18.30;11.20;;;;;;;-3.01;82.99;102272.27;450547;1250;129038;-65
2023/02/08 07:25:40;;;;;;;13.80;10.20;;;;;;;-2.94;82.67;102281.91;447439;1250;142885;-66
2023/02/08 07:35:45;;;;;;;12.20;9.20;;;;;;;-2.89;82.41;102282.96;445764;1249;142262;-65
2023/02/08 07:45:51;;;;;;;15.20;10.40;;;;;;;-2.83;82.26;102285.73;445060;1250;143116;-67
2023/02/08 07:55:58;;;;;;;12.10;8.80;;;;;;;-2.68;82.15;102283.66;450964;1250;142645;-65
2023/02/08 08:06:04;;;;;;;18.50;11.60;;;;;;;-2.60;81.80;102287.70;451072;1251;143099;-66
2023/02/08 08:16:10;;;;;;;12.70;8.20;;;;;;;-2.61;81.50;102287.66;450287;1250;143108;-65
2023/02/08 08:26:18;;;;;;;12.10;8.20;;;;;;;-2.49;81.57;102290.12;451051;1250;142441;-66
2023/02/08 08:36:24;;;;;;;14.50;11.00;;;;;;;-2.39;81.14;102287.20;442481;1250;142726;-66
2023/02/08 08:46:28;;;;;;;;;;;;;;;-2.14;81.25;102283.00;445593;1250;212799;-66
2023/02/08 08:56:35;;;;;;;17.70;11.30;;;;;;;-1.81;81.13;102286.80;451233;1250;128987;-66
2023/02/08 09:06:39;;;;;;;;;;;;;;;-1.53;80.77;102289.86;450370;1250;142102;-66
2023/02/08 09:16:46;;;;;;;23.50;15.40;;;;;;;-1.14;80.60;102290.09;451241;1250;128840;-66
2023/02/08 09:26:53;;;;;;;18.30;13.50;;;;;;;-0.86;79.95;102290.52;447401;1250;143953;-67
2023/02/08 09:36:59;;;;;;;27.10;16.40;;;;;;;-0.56;79.43;102291.98;449395;1250;143380;-65
2023/02/08 09:47:10;;;;;;;26.10;16.60;;;;;;;-0.32;79.14;102303.24;450857;1249;142294;-66
2023/02/08 09:57:22;;;;;;;24.60;14.80;;;;;;;-0.08;78.32;102308.64;451001;1251;142362;-67
2023/02/08 10:07:28;;;;;;;18.00;11.70;;;;;;;0.16;77.40;102298.68;450180;1251;143281;-66
2023/02/08 10:17:51;;;;;;;17.50;11.70;;;;;;;0.40;76.54;102289.56;451065;1251;143893;-66
2023/02/08 10:28:13;;;;;;;17.90;12.40;;;;;;;0.58;75.25;102278.20;450223;1249;142510;-67
2023/02/08 10:38:28;;;;;;;14.40;11.00;;;;;;;0.74;74.60;102263.89;450840;1249;142618;-67
2023/02/08 10:49:06;;;;;;;17.40;11.10;;;;;;;0.82;73.91;102255.23;441871;1251;142576;-66
2023/02/08 10:59:22;;;;;;;15.00;9.10;;;;;;;0.97;73.45;102257.07;437004;1251;141962;-66
2023/02/08 11:09:30;;;;;;;12.00;7.60;;;;;;;1.02;72.57;102256.65;451015;1253;142727;-67
2023/02/08 11:19:41;;;;;;;12.00;8.60;;;;;;;1.00;71.80;102255.92;450572;1250;209942;-67
2023/02/08 11:29:47;;;;;;;12.70;6.80;;;;;;;1.01;70.91;102247.99;451020;1251;142833;-67
2023/02/08 11:39:55;;;;;;;14.20;8.70;;;;;;;0.85;70.99;102243.21;450264;1251;142242;-66
2023/02/08 11:50:04;;;;;;;9.60;5.60;;;;;;;0.88;71.03;102233.45;443869;1249;141442;-67
2023/02/08 12:00:20;;;;;;;11.80;8.70;;;;;;;0.78;70.22;102231.88;451026;1250;142902;-67
2023/02/08 12:10:46;;;;;;;13.40;7.90;;;;;;;1.24;70.61;102224.07;450309;1251;141975;-67
2023/02/08 12:21:01;;;;;;;7.90;6.00;;;;;;;1.73;69.55;102222.10;451050;1251;141924;-67
2023/02/08 12:31:14;;;;;;;17.50;9.80;;;;;;;1.86;69.00;102222.80;450299;1251;143224;-67
2023/02/08 12:41:28;;;;;;;10.40;7.70;;;;;;;1.91;68.73;102209.41;450968;1251;141853;-66
2023/02/08 12:51:42;;;;;;;13.30;9.60;;;;;;;1.82;68.27;102203.75;450204;1250;142695;-67
2023/02/08 13:01:55;;;;;;;9.30;5.70;;;;;;;1.68;68.19;102203.20;451103;1250;141573;-67
2023/02/08 13:12:06;;;;;;;9.10;6.50;;;;;;;1.96;67.37;102182.50;451144;1250;141477;-67
2023/02/08 13:22:15;;;;;;;8.40;5.60;;;;;;;2.00;66.64;102175.66;439885;1251;142292;-67
2023/02/08 13:32:29;;;;;;;10.50;6.50;;;;;;;1.82;66.49;102159.52;451094;1249;141878;-66
2023/02/08 13:42:41;;;;;;;10.80;7.60;;;;;;;1.48;66.04;102157.85;450355;1251;166503;-67
2023/02/08 13:52:54;;;;;;;9.10;6.40;;;;;;;1.17;66.00;102155.46;451048;1251;142101;-66
2023/02/08 14:03:19;;;;;;;10.40;7.00;;;;;;;0.89;65.91;102159.83;451155;1249;141991;-67
2023/02/08 14:13:31;;;;;;;11.20;8.60;;;;;;;0.49;65.73;102157.02;445911;1250;141796;-66
2023/02/08 14:23:39;;;;;;;8.50;6.50;;;;;;;0.17;65.98;102163.80;451129;1249;142448;-67
2023/02/08 14:33:53;;;;;;;12.50;8.20;;;;;;;-0.10;66.36;102165.14;450414;1250;141876;-67
2023/02/08 14:43:59;;;;;;;10.20;6.90;;;;;;;-0.33;66.41;102171.54;451197;1250;142689;-66
2023/02/08 14:54:15;;;;;;;10.70;6.70;;;;;;;-0.44;66.42;102173.86;437143;1250;141842;-67
2023/02/08 15:04:21;;;;;;;9.70;6.90;;;;;;;-0.64;66.91;102171.86;450467;1250;142143;-66
2023/02/08 15:14:29;;;;;;;12.70;8.00;;;;;;;-0.85;66.93;102174.60;451219;1249;141619;-65
2023/02/08 15:24:34;;;;;;;11.30;7.80;;;;;;;-1.09;67.26;102177.63;450456;1249;167923;-65
2023/02/08 15:34:45;;;;;;;12.80;7.50;;;;;;;-1.47;67.82;102179.37;448424;1250;141740;-66
2023/02/08 15:44:52;;;;;;;12.70;9.10;;;;;;;-1.94;68.23;102175.48;451205;1249;143432;-66
2023/02/08 15:54:58;;;;;;;19.00;11.00;;;;;;;-2.32;68.71;102167.83;450312;1250;142198;-66
2023/02/08 16:05:18;;;;;;;19.10;12.00;;;;;;;-2.65;69.37;102169.05;451132;1250;142432;-67
2023/02/08 16:15:39;;;;;;;21.00;12.60;;;;;;;-2.99;69.88;102170.00;451258;1250;141801;-67
2023/02/08 16:25:48;;;;;;;28.30;17.40;;;;;;;-3.26;70.57;102166.36;450810;1250;209966;-68
2023/02/08 16:36:00;;;;;;;36.30;22.00;;;;;;;-3.47;71.03;102156.04;451221;1249;142239;-63
2023/02/08 16:46:26;;;;;;;40.20;23.90;;;;;;;-3.68;71.55;102149.30;450402;1249;144723;-63
2023/02/08 16:56:34;;;;;;;35.20;22.60;;;;;;;-3.88;72.23;102143.61;451138;1249;142602;-63
2023/02/08 17:06:42;;;;;;;40.10;24.10;;;;;;;-4.01;72.80;102137.31;449645;1249;142431;-64
2023/02/08 17:16:48;;;;;;;39.90;26.70;;;;;;;-4.13;73.11;102126.80;451038;1250;142201;-63
2023/02/08 17:26:55;;;;;;;36.70;24.00;;;;;;;-4.24;73.58;102116.98;451184;1250;142898;-63
2023/02/08 17:37:01;;;;;;;40.30;27.50;;;;;;;-4.32;73.90;102106.61;449565;1251;142603;-62
2023/02/08 17:47:05;;;;;;;;;;;;;;;-4.46;74.36;102101.98;447639;1251;141973;-64
2023/02/08 17:57:11;;;;;;;65.80;44.80;;;;;;;-4.64;74.84;102107.75;438281;1251;129062;-62
2023/02/08 18:07:18;;;;;;;63.60;40.10;;;;;;;-4.85;75.19;102108.33;449580;1251;143549;-63
2023/02/08 18:17:23;;;;;;;57.90;36.60;;;;;;;-5.02;75.68;102110.88;450423;1251;142618;-63
2023/02/08 18:27:30;;;;;;;45.00;29.40;;;;;;;-5.13;76.08;102119.98;450209;1250;143314;-63
2023/02/08 18:37:37;;;;;;;49.50;31.10;;;;;;;-5.28;76.43;102119.91;450337;1250;213902;-63
2023/02/08 18:47:43;;;;;;;52.80;33.50;;;;;;;-5.40;76.78;102119.08;450205;1250;143400;-62
2023/02/08 18:57:49;;;;;;;48.70;31.20;;;;;;;-5.51;77.18;102119.95;449275;1250;142252;-62
2023/02/08 19:07:55;;;;;;;59.80;34.30;;;;;;;-5.68;77.60;102110.86;450096;1250;144258;-63
2023/02/08 19:18:01;;;;;;;64.90;40.80;;;;;;;-5.83;77.99;102099.32;450174;1250;143697;-63
2023/02/08 19:28:07;;;;;;;65.80;43.90;;;;;;;-5.93;78.52;102097.35;449676;1250;142945;-63
2023/02/08 19:38:13;;;;;;;69.90;45.60;;;;;;;-5.96;78.75;102089.02;450439;1250;144377;-63
2023/02/08 19:48:20;;;;;;;64.20;42.70;;;;;;;-6.07;79.06;102090.94;450524;1250;144212;-64
2023/02/08 19:58:27;;;;;;;64.70;39.60;;;;;;;-6.16;79.63;102100.25;449776;1250;142785;-63
2023/02/08 20:08:33;;;;;;;57.50;37.70;;;;;;;-6.40;79.35;102093.05;450524;1248;143291;-64
2023/02/08 20:18:40;;;;;;;59.90;39.00;;;;;;;-6.63;79.54;102082.46;450385;1250;142991;-63
2023/02/08 20:28:49;;;;;;;66.40;40.10;;;;;;;-6.75;80.10;102076.61;440345;1250;143691;-63
2023/02/08 20:38:57;;;;;;;68.40;45.60;;;;;;;-6.77;81.03;102059.35;445445;1250;143640;-63
2023/02/08 20:49:04;;;;;;;70.60;44.20;;;;;;;-6.75;81.49;102056.53;450199;1250;142274;-64
2023/02/08 20:59:14;;;;;;;77.20;50.10;;;;;;;-6.83;81.63;102042.36;444885;1250;143602;-63
2023/02/08 21:09:21;;;;;;;76.80;48.00;;;;;;;-6.94;81.81;102033.02;449564;1250;143966;-63
2023/02/08 21:19:29;;;;;;;77.30;50.00;;;;;;;-7.04;82.23;102026.58;447436;1250;142946;-64
2023/02/08 21:29:35;;;;;;;76.40;51.20;;;;;;;-7.16;82.71;102017.16;450960;1250;142258;-63
2023/02/08 21:39:41;;;;;;;97.20;56.80;;;;;;;-7.28;82.93;102007.36;436645;1250;142917;-64
2023/02/08 22:00:14;;;;;;;83.20;52.70;;;;;;;-7.65;83.54;102001.70;450986;1250;142323;-62
2023/02/08 22:10:23;;;;;;;77.90;51.50;;;;;;;-7.66;84.21;101992.48;450062;1249;142792;-63
2023/02/08 22:20:31;;;;;;;79.00;49.60;;;;;;;-7.58;84.81;101983.81;450987;1250;142625;-62
2023/02/08 22:30:38;;;;;;;99.20;59.40;;;;;;;-7.60;84.84;101962.50;449730;1249;144569;-63
2023/02/08 22:40:45;;;;;;;86.80;52.50;;;;;;;-7.65;84.81;101957.45;451046;1250;142471;-63
2023/02/08 22:50:51;;;;;;;80.80;50.80;;;;;;;-7.80;84.73;101951.30;450898;1250;142797;-62
2023/02/08 23:00:58;;;;;;;78.10;47.30;;;;;;;-7.84;85.38;101929.35;450189;1250;143914;-62
2023/02/08 23:11:05;;;;;;;73.20;47.80;;;;;;;-7.85;85.64;101914.83;450970;1250;142646;-62
2023/02/08 23:21:14;;;;;;;68.70;43.10;;;;;;;-7.86;86.08;101912.04;450930;1250;144663;-62
2023/02/08 23:31:20;;;;;;;63.70;42.70;;;;;;;-7.87;86.24;101909.63;446334;1250;143730;-62
2023/02/08 23:41:26;;;;;;;62.60;40.20;;;;;;;-7.93;86.58;101914.29;450922;1250;142722;-62
2023/02/08 23:51:32;;;;;;;61.90;39.70;;;;;;;-7.92;87.20;101895.59;445698;1251;142666;-63
